Anton, TX

5:07 PM CDT on April 18, 2015 (GMT -0500)
WT_Meso | | Change Station
CLOSE
Current Station
Personal Weather Station
Location: Anton, TX
Elevation: 3404 ft
Nearby Weather Stations

Elev 3404 ft 33.73 °N, 102.19 °W | Updated 22 minutes ago

Clear
Clear
74 °F
Feels Like 75 °F
N
22
Wind Variable Wind from SW
Gusts 31.0 mph

Today
High -- | Low -- °F
--% Chance of Precip.
Yesterday
High -- | Low -- °F
Precip. -- in
7:14 AM 8:21 PM
New Moon, 0% visible
Pressure 29.68 in
Visibility 10.0 miles
Clouds Few 12000 ft
Few 19000 ft
Few 26000 ft
Heat Index 75 °F
Dew Point 22 °F
Humidity 14%
Rainfall in
Snow Depth Not available.
UV 5 out of 12
Pollen 9.20 out of 12
Air Quality Not available.
Flu Activity Local Activity
METAR KLBB 182153Z COR 25021G28KT 10SM FEW120 FEW190 FEW260 24/M06 A2978 RMK AO2 PK WND 26034/2116 SLP050 BLDU E-S T02441056

More Conditions Fewer Conditions

Pressure 29.68 in
Visibility 10.0 miles
Clouds Few 12000 ft
Few 19000 ft
Few 26000 ft
Heat Index 75 °F
Dew Point 22 °F
Humidity 14%
Rainfall in
Snow Depth Not available.
UV 5 out of 12
Pollen 9.20 out of 12
Air Quality Not available.
Flu Activity Local Activity
METAR KLBB 182153Z COR 25021G28KT 10SM FEW120 FEW190 FEW260 24/M06 A2978 RMK AO2 PK WND 26034/2116 SLP050 BLDU E-S T02441056

More Conditions Fewer Conditions

10-Day Weather Forecast

Almanac

Astronomy

Apr. 18, 2015 Rise Set
Actual Time
Civil Twilight
Nautical Twilight
Astronomical Twilight
Moon
Length of Visible Light
Length of Day
Tomorrow will be .
, % of the Moon is Illuminated

Today's Extremes

State Highs State Lows

Community

WunderPhotos

Upload Photos

1,814,549 photos uploaded!

WunderBlogs® & News

Nearby

Air Quality

  Air Quality AQ Index Pollutant
Not available.

Snow Depth

Station Depth Elevation

Earthquake Activity

City Distance Mag. Time & Date
Minimum magnitude displayed is 2.5.

Coastal Water Temperatures

Place Temperature

Stations

Nearby Weather Stations

Station Location Temp. Windchill Dew Point Humidity Wind Precip. Elev Updated Type